createdAt,value
2018-07-28T00:00:21.677Z,26.45
2018-07-28T00:02:51.749Z,26.28
2018-07-28T00:05:20.897Z,26.44
2018-07-28T00:07:50.113Z,26.38
2018-07-28T00:10:19.269Z,26.17
2018-07-28T00:12:48.397Z,26.06
2018-07-28T00:15:17.616Z,25.93
2018-07-28T00:17:46.748Z,25.88
2018-07-28T00:20:15.891Z,25.87
2018-07-28T00:22:45.024Z,25.90
2018-07-28T00:25:14.173Z,25.94
2018-07-28T00:27:43.282Z,25.95
2018-07-28T00:30:13.338Z,25.92
2018-07-28T00:32:42.453Z,25.88
2018-07-28T00:35:11.561Z,25.86
2018-07-28T00:37:40.695Z,25.87
2018-07-28T00:40:09.863Z,25.82
2018-07-28T00:42:38.977Z,25.91
2018-07-28T00:45:08.401Z,25.79
2018-07-28T00:47:37.505Z,25.99
2018-07-28T00:50:07.545Z,25.85
2018-07-28T00:52:36.681Z,25.85
2018-07-28T00:55:06.241Z,25.79
2018-07-28T00:57:35.374Z,25.61
2018-07-28T01:00:05.705Z,25.58
2018-07-28T01:02:34.817Z,25.66
2018-07-28T01:05:03.989Z,25.43
2018-07-28T01:07:33.107Z,25.54
2018-07-28T01:10:02.218Z,25.45
2018-07-28T01:12:31.333Z,25.54
2018-07-28T01:15:00.441Z,25.53
2018-07-28T01:17:29.540Z,25.35
2018-07-28T01:19:58.637Z,25.36
2018-07-28T01:22:27.729Z,25.46
2018-07-28T01:24:56.829Z,25.33
2018-07-28T01:27:25.949Z,25.36
2018-07-28T01:29:55.037Z,25.27
2018-07-28T01:32:24.146Z,25.20
2018-07-28T01:34:53.256Z,25.21
2018-07-28T01:37:22.469Z,25.30
2018-07-28T01:39:51.671Z,25.23
2018-07-28T01:42:20.798Z,25.12
2018-07-28T01:44:49.970Z,25.03
2018-07-28T01:47:19.818Z,25.05
2018-07-28T01:49:49.001Z,25.00
2018-07-28T01:52:18.257Z,24.96
2018-07-28T01:54:47.393Z,25.01
2018-07-28T01:57:16.566Z,25.05
2018-07-28T01:59:45.703Z,25.13
2018-07-28T02:02:14.805Z,24.92
2018-07-28T02:04:43.897Z,25.20
2018-07-28T02:07:13.009Z,24.85
2018-07-28T02:09:42.109Z,24.98
2018-07-28T02:12:11.217Z,24.99
2018-07-28T02:14:40.362Z,25.11
2018-07-28T02:17:09.441Z,24.98
2018-07-28T02:19:38.625Z,25.20
2018-07-28T02:22:07.837Z,24.92
2018-07-28T02:24:36.955Z,24.83
2018-07-28T02:27:06.125Z,24.79
2018-07-28T02:29:35.217Z,24.80
2018-07-28T02:32:04.326Z,24.97
2018-07-28T02:34:33.429Z,25.01
2018-07-28T02:37:02.529Z,24.82
2018-07-28T02:39:31.645Z,24.81
2018-07-28T02:42:00.722Z,24.65
2018-07-28T02:44:29.833Z,24.51
2018-07-28T02:46:58.961Z,24.40
2018-07-28T02:49:28.075Z,24.75
2018-07-28T02:51:57.214Z,24.66
2018-07-28T02:54:26.313Z,24.78
2018-07-28T02:56:55.405Z,24.60
2018-07-28T02:59:24.497Z,24.75
2018-07-28T03:01:53.588Z,24.75
2018-07-28T03:04:22.686Z,24.76
2018-07-28T03:06:51.801Z,24.77
2018-07-28T03:09:20.914Z,24.71
2018-07-28T03:11:50.071Z,24.81
2018-07-28T03:14:19.244Z,24.67
2018-07-28T03:16:48.465Z,24.59
2018-07-28T03:19:17.607Z,24.66
2018-07-28T03:21:46.745Z,24.51
2018-07-28T03:24:15.882Z,24.10
2018-07-28T03:26:44.971Z,24.53
2018-07-28T03:29:14.090Z,24.51
2018-07-28T03:31:43.186Z,24.30
2018-07-28T03:34:12.285Z,24.41
2018-07-28T03:36:41.429Z,24.25
2018-07-28T03:39:11.712Z,24.20
2018-07-28T03:41:40.948Z,24.36
2018-07-28T03:44:10.085Z,24.39
2018-07-28T03:46:39.267Z,24.29
2018-07-28T03:49:08.417Z,24.16
2018-07-28T03:51:37.554Z,24.30
2018-07-28T03:54:06.647Z,24.37
2018-07-28T03:56:35.816Z,24.25
2018-07-28T03:59:05.281Z,24.32
2018-07-28T04:01:34.446Z,24.32
2018-07-28T04:04:03.629Z,24.35
2018-07-28T04:06:32.741Z,24.40
2018-07-28T04:09:01.841Z,24.41
2018-07-28T04:11:30.986Z,24.46
2018-07-28T04:14:00.090Z,24.26
2018-07-28T04:16:29.193Z,24.42
2018-07-28T04:18:58.300Z,24.39
2018-07-28T04:21:27.456Z,24.42
2018-07-28T04:23:56.572Z,24.17
2018-07-28T04:26:25.687Z,24.39
2018-07-28T04:28:54.759Z,24.45
2018-07-28T04:31:23.858Z,24.26
2018-07-28T04:33:52.958Z,24.31
2018-07-28T04:36:22.068Z,24.19
2018-07-28T04:38:51.229Z,24.45
2018-07-28T04:41:20.338Z,24.48
2018-07-28T04:43:49.461Z,24.43
2018-07-28T04:46:18.569Z,24.46
2018-07-28T04:48:47.753Z,24.71
2018-07-28T04:51:16.873Z,24.85
2018-07-28T04:53:45.967Z,24.88
2018-07-28T04:56:15.054Z,24.96
2018-07-28T04:58:44.154Z,24.99
2018-07-28T05:01:13.331Z,25.15
2018-07-28T05:03:42.429Z,25.00
2018-07-28T05:06:11.520Z,24.67
2018-07-28T05:08:40.624Z,25.10
2018-07-28T05:11:09.706Z,25.20
2018-07-28T05:13:38.821Z,25.20
2018-07-28T05:16:07.907Z,25.30
2018-07-28T05:18:37.035Z,25.31
2018-07-28T05:21:06.157Z,25.14
2018-07-28T05:23:35.329Z,25.26
2018-07-28T05:26:04.460Z,25.23
2018-07-28T05:28:33.582Z,25.18
2018-07-28T05:31:02.730Z,25.20
2018-07-28T05:33:31.877Z,25.23
2018-07-28T05:36:00.969Z,24.84
2018-07-28T05:38:30.065Z,24.91
2018-07-28T05:40:59.216Z,25.12
2018-07-28T05:43:28.308Z,25.19
2018-07-28T05:45:57.401Z,24.92
2018-07-28T05:48:27.510Z,24.95
2018-07-28T05:50:56.593Z,25.19
2018-07-28T05:53:25.717Z,25.02
2018-07-28T05:55:54.821Z,24.98
2018-07-28T05:58:23.929Z,25.07
2018-07-28T06:00:53.050Z,25.22
2018-07-28T06:03:22.152Z,25.43
2018-07-28T06:05:51.273Z,25.29
2018-07-28T06:08:20.373Z,25.45
2018-07-28T06:10:49.498Z,25.43
2018-07-28T06:13:18.613Z,25.55
2018-07-28T06:15:47.745Z,25.63
2018-07-28T06:18:16.891Z,25.67
2018-07-28T06:20:46.008Z,25.71
2018-07-28T06:23:15.169Z,25.39
2018-07-28T06:25:44.278Z,25.41
2018-07-28T06:28:13.376Z,25.40
2018-07-28T06:30:42.508Z,25.36
2018-07-28T06:33:11.605Z,25.41
2018-07-28T06:35:41.225Z,25.40
2018-07-28T06:38:10.434Z,25.45
2018-07-28T06:40:39.725Z,25.54
2018-07-28T06:43:08.938Z,25.56
2018-07-28T06:45:38.211Z,25.67
2018-07-28T06:48:09.385Z,25.66
2018-07-28T06:50:40.649Z,25.76
2018-07-28T06:53:09.833Z,25.87
2018-07-28T06:55:39.022Z,25.78
2018-07-28T06:58:09.270Z,25.93
2018-07-28T07:00:38.416Z,25.99
2018-07-28T07:03:07.617Z,25.60
2018-07-28T07:05:37.888Z,25.92
2018-07-28T07:08:08.097Z,25.94
2018-07-28T07:10:39.241Z,25.90
2018-07-28T07:13:08.349Z,26.09
2018-07-28T07:15:41.238Z,26.03
2018-07-28T07:18:10.689Z,26.15
2018-07-28T07:20:40.250Z,26.25
2018-07-28T07:23:12.660Z,26.47
2018-07-28T07:25:43.580Z,26.46
2018-07-28T07:28:20.710Z,26.72
2018-07-28T07:30:50.619Z,26.49
2018-07-28T07:33:20.859Z,26.38
2018-07-28T07:35:52.096Z,26.44
2018-07-28T07:38:21.308Z,26.37
2018-07-28T07:40:50.401Z,26.42
2018-07-28T07:43:19.507Z,26.26
2018-07-28T07:45:48.659Z,26.21
2018-07-28T07:48:18.971Z,26.25
2018-07-28T07:50:48.512Z,26.15
2018-07-28T07:53:17.875Z,26.12
2018-07-28T07:55:47.086Z,26.15
2018-07-28T07:58:16.330Z,26.12
2018-07-28T08:00:45.537Z,26.16
2018-07-28T08:03:14.872Z,26.15
2018-07-28T08:05:44.271Z,26.30
2018-07-28T08:08:19.699Z,26.24
2018-07-28T08:10:48.956Z,26.24
2018-07-28T08:13:18.154Z,26.36
2018-07-28T08:15:47.331Z,26.27
2018-07-28T08:18:16.618Z,26.33
2018-07-28T08:20:45.789Z,26.37
2018-07-28T08:23:14.936Z,26.59
2018-07-28T08:25:44.052Z,26.62
2018-07-28T08:28:13.210Z,26.66
2018-07-28T08:30:42.321Z,26.75
2018-07-28T08:33:11.411Z,26.84
2018-07-28T08:35:40.509Z,26.75
2018-07-28T08:38:09.641Z,26.66
2018-07-28T08:40:38.762Z,26.54
2018-07-28T08:43:07.973Z,26.49
2018-07-28T08:45:37.193Z,26.60
2018-07-28T08:48:06.431Z,26.57
2018-07-28T08:50:35.635Z,26.53
2018-07-28T08:53:04.837Z,26.69
2018-07-28T08:55:34.028Z,26.81
2018-07-28T08:58:03.162Z,26.98
2018-07-28T09:00:32.261Z,27.20
2018-07-28T09:03:01.384Z,27.69
2018-07-28T09:05:30.485Z,27.57
2018-07-28T09:07:59.606Z,28.29
2018-07-28T09:10:28.786Z,28.53
2018-07-28T09:12:57.869Z,28.16
2018-07-28T09:15:26.988Z,28.00
2018-07-28T09:17:56.179Z,28.91
2018-07-28T09:20:25.290Z,29.13
2018-07-28T09:22:54.459Z,29.35
2018-07-28T09:25:23.630Z,30.13
2018-07-28T09:27:52.773Z,30.59
2018-07-28T09:30:21.909Z,30.21
2018-07-28T09:32:51.066Z,30.58
2018-07-28T09:35:20.270Z,30.17
2018-07-28T09:37:49.667Z,30.03
2018-07-28T09:40:18.683Z,29.62
2018-07-28T09:42:47.901Z,29.49
2018-07-28T09:45:17.085Z,29.15
2018-07-28T09:47:46.331Z,28.69
2018-07-28T09:50:15.549Z,29.20
2018-07-28T09:52:44.724Z,29.11
2018-07-28T09:55:13.900Z,29.30
2018-07-28T09:57:43.498Z,29.10
2018-07-28T10:00:16.384Z,29.33
2018-07-28T10:02:45.607Z,28.90
2018-07-28T10:05:14.811Z,29.07
2018-07-28T10:07:43.927Z,29.31
2018-07-28T10:10:13.066Z,29.50
2018-07-28T10:12:42.200Z,28.50
2018-07-28T10:15:11.341Z,28.76
2018-07-28T10:17:40.461Z,28.81
2018-07-28T10:20:09.579Z,28.11
2018-07-28T10:22:39.006Z,28.64
2018-07-28T10:25:08.213Z,28.97
2018-07-28T10:27:37.289Z,29.44
2018-07-28T10:30:07.639Z,29.53
2018-07-28T10:32:37.758Z,29.45
2018-07-28T10:35:07.908Z,29.35
2018-07-28T10:37:37.750Z,29.46
2018-07-28T10:40:07.664Z,29.45
2018-07-28T10:42:37.205Z,29.81
2018-07-28T10:45:06.625Z,29.96
2018-07-28T10:47:35.802Z,29.98
2018-07-28T10:50:05.529Z,30.19
2018-07-28T10:52:34.719Z,30.19
2018-07-28T10:55:03.909Z,30.12
2018-07-28T10:57:33.085Z,30.38
2018-07-28T11:00:02.246Z,30.57
2018-07-28T11:02:31.321Z,30.78
2018-07-28T11:05:00.437Z,30.39
2018-07-28T11:07:29.553Z,30.51
2018-07-28T11:09:58.881Z,30.37
2018-07-28T11:12:28.017Z,30.01
2018-07-28T11:14:57.185Z,30.11
2018-07-28T11:17:26.322Z,29.73
2018-07-28T11:19:55.441Z,29.72
2018-07-28T11:22:24.565Z,29.55
2018-07-28T11:24:53.717Z,29.32
2018-07-28T11:27:22.906Z,28.55
2018-07-28T11:29:52.075Z,27.81
2018-07-28T11:32:32.462Z,27.48
2018-07-28T11:35:12.762Z,27.42
2018-07-28T11:37:54.183Z,27.23
2018-07-28T11:41:36.256Z,26.96
2018-07-28T11:44:16.634Z,26.83
2018-07-28T11:46:45.757Z,26.49
2018-07-28T11:49:14.890Z,26.46
2018-07-28T11:51:44.001Z,26.87
2018-07-28T11:54:13.144Z,27.03
2018-07-28T11:56:42.466Z,26.75
2018-07-28T11:59:11.567Z,27.13
2018-07-28T12:01:40.698Z,27.65
2018-07-28T12:04:09.817Z,27.95
2018-07-28T12:06:38.948Z,27.52
2018-07-28T12:09:08.525Z,26.77
2018-07-28T12:11:37.654Z,27.42
2018-07-28T12:14:07.103Z,27.42
2018-07-28T12:16:36.217Z,27.61
2018-07-28T12:19:05.553Z,27.92
2018-07-28T12:21:34.720Z,27.13
2018-07-28T12:24:04.016Z,26.65
2018-07-28T12:26:33.089Z,26.66
2018-07-28T12:29:03.691Z,26.48
2018-07-28T12:31:32.822Z,25.96
2018-07-28T12:34:01.961Z,26.40
2018-07-28T12:36:31.089Z,26.33
2018-07-28T12:39:00.241Z,26.55
2018-07-28T12:41:29.433Z,26.90
2018-07-28T12:44:00.411Z,26.80
2018-07-28T12:46:29.526Z,27.06
2018-07-28T12:48:58.934Z,26.71
2018-07-28T12:51:28.361Z,26.53
2018-07-28T12:53:57.534Z,26.44
2018-07-28T12:56:26.782Z,26.61
2018-07-28T12:58:55.905Z,26.41
2018-07-28T13:01:25.038Z,26.21
2018-07-28T13:03:54.296Z,25.80
2018-07-28T13:06:23.360Z,25.90
2018-07-28T13:08:52.549Z,26.72
2018-07-28T13:11:21.722Z,27.38
2018-07-28T13:13:50.914Z,27.21
2018-07-28T13:16:20.129Z,26.74
2018-07-28T13:18:49.349Z,27.06
2018-07-28T13:21:18.547Z,27.14
2018-07-28T13:23:47.763Z,27.18
2018-07-28T13:26:16.913Z,27.45
2018-07-28T13:28:46.090Z,27.24
2018-07-28T13:31:15.225Z,27.05
2018-07-28T13:33:44.349Z,27.11
2018-07-28T13:36:13.479Z,27.64
2018-07-28T13:38:42.661Z,27.25
2018-07-28T13:41:11.801Z,27.16
2018-07-28T13:43:41.821Z,27.07
2018-07-28T13:46:10.971Z,26.86
2018-07-28T13:48:40.136Z,26.79
2018-07-28T13:51:09.401Z,27.41
2018-07-28T13:53:38.554Z,27.24
2018-07-28T13:56:07.770Z,27.19
2018-07-28T13:58:37.124Z,27.20
2018-07-28T14:01:06.367Z,27.09
2018-07-28T14:03:35.557Z,27.19
2018-07-28T14:06:05.157Z,27.52
2018-07-28T14:08:34.229Z,28.10
2018-07-28T14:11:03.362Z,28.02
2018-07-28T14:13:32.497Z,27.95
2018-07-28T14:16:01.634Z,27.95
2018-07-28T14:18:30.886Z,28.17
2018-07-28T14:20:59.985Z,28.25
2018-07-28T14:23:29.195Z,28.28
2018-07-28T14:25:58.377Z,28.30
2018-07-28T14:28:27.520Z,28.23
2018-07-28T14:31:01.873Z,28.23
2018-07-28T14:33:31.066Z,28.16
2018-07-28T14:36:00.197Z,27.84
2018-07-28T14:38:29.350Z,28.03
2018-07-28T14:40:58.457Z,28.19
2018-07-28T14:43:27.582Z,28.24
2018-07-28T14:45:56.718Z,28.19
2018-07-28T14:48:25.845Z,28.16
2018-07-28T14:50:54.967Z,28.29
2018-07-28T14:53:24.260Z,28.19
2018-07-28T14:55:53.863Z,28.12
2018-07-28T14:58:23.225Z,27.79
2018-07-28T15:00:52.597Z,27.74
2018-07-28T15:03:21.957Z,27.67
2018-07-28T15:05:51.478Z,27.52
2018-07-28T15:08:20.752Z,27.29
2018-07-28T15:10:50.082Z,27.46
2018-07-28T15:13:19.225Z,27.25
2018-07-28T15:15:48.378Z,27.45
2018-07-28T15:18:17.918Z,27.30
2018-07-28T15:20:47.053Z,27.03
2018-07-28T15:23:16.181Z,26.95
2018-07-28T15:25:45.333Z,26.90
2018-07-28T15:28:14.449Z,26.87
2018-07-28T15:30:43.605Z,26.81
2018-07-28T15:33:12.733Z,26.95
2018-07-28T15:35:41.846Z,27.05
2018-07-28T15:38:11.049Z,27.09
2018-07-28T15:40:40.349Z,27.20
2018-07-28T15:43:09.547Z,27.60
2018-07-28T15:45:38.761Z,27.20
2018-07-28T15:48:08.057Z,27.61
2018-07-28T15:50:37.362Z,27.62
2018-07-28T15:53:06.590Z,27.74
2018-07-28T15:55:35.834Z,27.74
2018-07-28T15:58:05.033Z,27.92
2018-07-28T16:00:34.217Z,28.25
2018-07-28T16:03:03.350Z,28.15
2018-07-28T16:05:32.470Z,28.08
2018-07-28T16:08:01.618Z,27.99
2018-07-28T16:10:30.753Z,27.82
2018-07-28T16:12:59.877Z,27.71
2018-07-28T16:15:29.030Z,27.46
2018-07-28T16:17:58.230Z,27.60
2018-07-28T16:20:27.328Z,27.44
2018-07-28T16:22:56.495Z,27.28
2018-07-28T16:25:25.615Z,27.29
2018-07-28T16:27:54.717Z,27.37
2018-07-28T16:30:23.889Z,27.40
2018-07-28T16:32:53.029Z,27.23
2018-07-28T16:35:22.173Z,27.31
2018-07-28T16:37:51.380Z,27.48
2018-07-28T16:40:20.510Z,27.85
2018-07-28T16:42:49.665Z,28.07
2018-07-28T16:45:18.792Z,28.06
2018-07-28T16:47:47.873Z,28.18
2018-07-28T16:50:16.997Z,28.25
2018-07-28T16:52:46.118Z,28.36
2018-07-28T16:55:15.252Z,28.42
2018-07-28T16:57:44.438Z,28.56
2018-07-28T17:00:13.568Z,28.41
2018-07-28T17:02:42.677Z,28.33
2018-07-28T17:05:11.831Z,28.10
2018-07-28T17:07:40.973Z,28.22
2018-07-28T17:10:10.168Z,28.37
2018-07-28T17:12:39.351Z,28.38
2018-07-28T17:15:09.425Z,28.49
2018-07-28T17:17:38.677Z,28.42
2018-07-28T17:20:08.470Z,28.29
2018-07-28T17:22:37.792Z,28.29
2018-07-28T17:25:06.962Z,28.25
2018-07-28T17:27:36.178Z,28.20
2018-07-28T17:30:05.382Z,28.21
2018-07-28T17:32:34.653Z,28.12
2018-07-28T17:35:03.822Z,28.17
2018-07-28T17:37:33.050Z,28.00
2018-07-28T17:40:02.190Z,28.15
2018-07-28T17:42:31.310Z,28.12
2018-07-28T17:45:00.433Z,28.11
2018-07-28T17:47:29.574Z,28.08
2018-07-28T17:49:58.689Z,27.99
2018-07-28T17:52:27.826Z,27.85
2018-07-28T17:54:56.965Z,27.86
2018-07-28T17:57:26.079Z,27.77
2018-07-28T17:59:55.229Z,27.55
2018-07-28T18:02:24.374Z,27.62
2018-07-28T18:04:53.534Z,27.46
2018-07-28T18:07:22.676Z,27.54
2018-07-28T18:09:51.821Z,27.74
2018-07-28T18:12:20.957Z,27.61
2018-07-28T18:14:50.072Z,27.71
2018-07-28T18:17:19.655Z,27.65
2018-07-28T18:19:48.770Z,27.70
2018-07-28T18:22:17.897Z,27.67
2018-07-28T18:24:47.024Z,27.60
2018-07-28T18:27:16.157Z,27.44
2018-07-28T18:29:45.317Z,27.38
2018-07-28T18:32:14.472Z,27.45
2018-07-28T18:34:43.615Z,27.44
2018-07-28T18:37:12.797Z,27.35
2018-07-28T18:39:41.941Z,27.21
2018-07-28T18:42:11.097Z,27.21
2018-07-28T18:44:40.226Z,27.08
2018-07-28T18:47:09.374Z,26.82
2018-07-28T18:49:38.506Z,26.85
2018-07-28T18:52:07.921Z,26.79
2018-07-28T18:54:37.058Z,26.70
2018-07-28T18:57:06.426Z,26.84
2018-07-28T18:59:35.718Z,26.78
2018-07-28T19:02:04.857Z,26.79
2018-07-28T19:04:33.981Z,26.68
2018-07-28T19:07:03.098Z,26.70
2018-07-28T19:09:37.318Z,26.77
2018-07-28T19:12:06.696Z,26.76
2018-07-28T19:14:38.483Z,26.61
2018-07-28T19:17:08.014Z,26.50
2018-07-28T19:19:37.109Z,26.44
2018-07-28T19:22:11.482Z,26.46
2018-07-28T19:24:40.594Z,26.50
2018-07-28T19:27:09.753Z,26.43
2018-07-28T19:29:41.742Z,26.40
2018-07-28T19:32:11.154Z,26.53
2018-07-28T19:34:40.568Z,26.49
2018-07-28T19:37:15.001Z,26.34
2018-07-28T19:39:44.137Z,26.40
2018-07-28T19:42:18.637Z,26.25
2018-07-28T19:44:47.790Z,26.03
2018-07-28T19:47:16.946Z,26.05
2018-07-28T19:49:46.051Z,25.86
2018-07-28T19:52:15.185Z,26.05
2018-07-28T19:54:44.314Z,26.05
2018-07-28T19:57:13.771Z,26.16
2018-07-28T19:59:42.874Z,26.02
2018-07-28T20:02:12.018Z,25.90
2018-07-28T20:04:41.137Z,25.76
2018-07-28T20:07:10.266Z,25.62
2018-07-28T20:09:39.381Z,25.40
2018-07-28T20:12:08.557Z,25.35
2018-07-28T20:14:37.693Z,25.48
2018-07-28T20:17:06.877Z,25.54
2018-07-28T20:19:36.018Z,25.53
2018-07-28T20:22:05.126Z,25.63
2018-07-28T20:24:34.254Z,25.60
2018-07-28T20:27:03.386Z,25.62
2018-07-28T20:29:32.537Z,25.49
2018-07-28T20:32:01.702Z,25.40
2018-07-28T20:34:30.815Z,25.35
2018-07-28T20:36:59.929Z,25.28
2018-07-28T20:39:29.130Z,25.03
2018-07-28T20:41:58.277Z,25.28
2018-07-28T20:44:27.473Z,24.82
2018-07-28T20:46:56.667Z,24.67
2018-07-28T20:49:25.805Z,24.77
2018-07-28T20:51:54.959Z,24.79
2018-07-28T20:54:24.073Z,24.91
2018-07-28T20:56:53.193Z,24.76
2018-07-28T20:59:22.341Z,24.75
2018-07-28T21:01:51.418Z,24.79
2018-07-28T21:04:20.546Z,24.84
2018-07-28T21:06:49.879Z,24.70
2018-07-28T21:09:19.048Z,24.61
2018-07-28T21:11:48.161Z,24.59
2018-07-28T21:14:17.273Z,24.46
2018-07-28T21:16:46.402Z,24.61
2018-07-28T21:19:15.537Z,24.64
2018-07-28T21:21:44.700Z,24.54
2018-07-28T21:24:13.783Z,24.47
2018-07-28T21:26:42.934Z,24.56
2018-07-28T21:29:12.088Z,24.32
2018-07-28T21:31:41.165Z,24.26
2018-07-28T21:34:10.330Z,24.32
2018-07-28T21:36:39.446Z,24.13
2018-07-28T21:39:09.949Z,24.25
2018-07-28T21:41:39.421Z,23.90
2018-07-28T21:44:08.547Z,24.27
2018-07-28T21:46:37.694Z,24.34
2018-07-28T21:49:06.833Z,24.25
2018-07-28T21:51:35.956Z,24.12
2018-07-28T21:54:05.109Z,24.16
2018-07-28T21:56:34.214Z,24.19
2018-07-28T21:59:03.353Z,24.11
2018-07-28T22:01:32.510Z,24.08
2018-07-28T22:04:03.108Z,24.06
2018-07-28T22:06:33.841Z,24.00
2018-07-28T22:09:03.042Z,23.88
2018-07-28T22:11:32.122Z,23.97
2018-07-28T22:14:01.241Z,23.94
2018-07-28T22:16:30.359Z,23.97
2018-07-28T22:18:59.481Z,23.88
2018-07-28T22:21:28.615Z,23.63
2018-07-28T22:23:57.804Z,23.63
2018-07-28T22:26:26.913Z,23.62
2018-07-28T22:28:56.006Z,23.80
2018-07-28T22:31:25.128Z,23.73
2018-07-28T22:33:54.234Z,23.92
2018-07-28T22:36:23.354Z,23.72
2018-07-28T22:38:52.465Z,23.63
2018-07-28T22:41:21.573Z,23.65
2018-07-28T22:43:50.719Z,23.52
2018-07-28T22:46:19.829Z,23.58
2018-07-28T22:48:48.937Z,23.59
2018-07-28T22:51:18.077Z,23.46
2018-07-28T22:53:47.205Z,23.42
2018-07-28T22:56:16.319Z,23.39
2018-07-28T22:58:45.423Z,23.57
2018-07-28T23:01:14.616Z,23.32
2018-07-28T23:03:43.691Z,23.37
2018-07-28T23:06:12.845Z,23.32
2018-07-28T23:08:41.986Z,23.10
2018-07-28T23:11:11.094Z,23.11
2018-07-28T23:13:40.205Z,23.16
2018-07-28T23:16:09.371Z,23.09
2018-07-28T23:18:38.494Z,23.05
2018-07-28T23:21:07.805Z,22.95
2018-07-28T23:23:36.894Z,22.96
2018-07-28T23:26:05.997Z,23.00
2018-07-28T23:28:35.109Z,22.79
2018-07-28T23:31:04.249Z,22.87
2018-07-28T23:33:33.380Z,22.88
2018-07-28T23:36:02.511Z,22.87
2018-07-28T23:38:31.626Z,23.01
2018-07-28T23:41:00.733Z,22.90
2018-07-28T23:43:29.850Z,22.92
2018-07-28T23:45:58.949Z,22.82
2018-07-28T23:48:28.073Z,22.76
2018-07-28T23:50:57.240Z,22.62
2018-07-28T23:53:26.362Z,22.55
2018-07-28T23:55:55.560Z,22.50
2018-07-28T23:58:24.717Z,22.42
